Historique des mesures à Cassis (13260), France
Quotidien Résumé Janvier 1, 2017 Unités:  Métrique    US   Métrique/US
« Précédent (Jour)
Suivant (Jour) »
Quotidien Hebdomadaire Mensuel Annuel Période au choix
  Maximum: Minimum: Moyenne:
Température: TemperatureC °C 8.5 °C 10.4 °C
Point de rosée: DewpointC °C 4.4 °C 6.1 °C
Humidité: Humidity % 70 % 71 %
Vitesse du vent: 0 km/h 0 km/h 3.1 km/h
Rafales: 0 km/h - -
Vent:- - SSE
Pression: PressurehPa hPa 1019.2 hPa -
Précipitations: 0.0 mm    
Historical Graphs
 
 
Mesures pour : Janvier 1, 2017
Heure Temperature Point de rosée Pression Vent Vitesse du vent Rafales Humidité Pluie (par heure) Conditions
TemperatureC °C DewpointC °C PressurehPa hPa Calm     Humidity % HourlyPrecipMM mm SoftwareType W/m2
00:11 9.7 °C 4.9 °C 1024.9 hPa NNW 7.6 km/h 13.2 km/h 72 % 0.0 mm open2300-1.11 W/m2
01:10 9.0 °C 4.4 °C 1024.6 hPa North 3.4 km/h 4.2 km/h 73 % 0.0 mm open2300-1.11 W/m2
02:11 8.9 °C 4.8 °C 1023.9 hPa North 8.9 km/h 10.9 km/h 76 % 0.0 mm open2300-1.11 W/m2
03:10 8.8 °C 4.6 °C 1023.6 hPa NW 5.6 km/h 5.6 km/h 75 % 0.0 mm open2300-1.11 W/m2
04:11 8.5 °C 4.5 °C 1022.9 hPa North 2.9 km/h 6.4 km/h 76 % 0.0 mm open2300-1.11 W/m2
05:10 8.8 °C 4.8 °C 1022.6 hPa NNW 5.6 km/h 5.6 km/h 76 % 0.0 mm open2300-1.11 W/m2
06:11 9.4 °C 4.9 °C 1022.2 hPa NW 9.8 km/h 9.8 km/h 74 % 0.0 mm open2300-1.11 W/m2
07:10 9.0 °C 4.7 °C 1022.2 hPa NNE 3.4 km/h 3.4 km/h 75 % 0.0 mm open2300-1.11 W/m2
08:11 8.8 °C 4.9 °C 1021.6 hPa NNE 2.3 km/h 5.1 km/h 77 % 0.0 mm open2300-1.11 W/m2
09:10 9.5 °C 5.8 °C 1021.9 hPa NNE 2.9 km/h 2.9 km/h 78 % 0.0 mm open2300-1.11 W/m2
10:11 11.0 °C 7.3 °C 1021.9 hPa Calm   7.6 km/h 78 % 0.0 mm open2300-1.11 W/m2
11:10 12.2 °C 8.3 °C 1021.6 hPa Calm   4.7 km/h 77 % 0.0 mm open2300-1.11 W/m2
12:11 13.4 °C 9.0 °C 1020.9 hPa SW 11.6 km/h 11.6 km/h 75 % 0.0 mm open2300-1.11 W/m2
13:10 13.6 °C 8.6 °C 1020.2 hPa SSE 8.9 km/h 8.9 km/h 72 % 0.0 mm open2300-1.11 W/m2
14:11 13.6 °C 8.4 °C 1019.5 hPa Calm   4.2 km/h 71 % 0.0 mm open2300-1.11 W/m2
15:10 13.5 °C 8.2 °C 1019.2 hPa Calm   5.1 km/h 70 % 0.0 mm open2300-1.11 W/m2
16:11 13.3 °C 8.3 °C 1019.2 hPa Calm   9.8 km/h 72 % 0.0 mm open2300-1.11 W/m2
17:10 12.9 °C 7.8 °C 1019.2 hPa Calm     71 % 0.0 mm open2300-1.11 W/m2
18:11 12.3 °C 7.2 °C 1019.2 hPa NNW 5.1 km/h 5.1 km/h 71 % 0.0 mm open2300-1.11 W/m2
19:10 11.0 °C 6.2 °C 1019.2 hPa Calm     72 % 0.0 mm open2300-1.11 W/m2
20:11 10.6 °C 6.2 °C 1019.2 hPa Calm     74 % 0.0 mm open2300-1.11 W/m2
21:10 10.9 °C 6.4 °C 1019.2 hPa Calm     74 % 0.0 mm open2300-1.11 W/m2
22:11 11.3 °C 6.8 °C 1019.2 hPa Calm     74 % 0.0 mm open2300-1.11 W/m2
23:10 10.9 °C 6.7 °C 1019.2 hPa Calm     75 % 0.0 mm open2300-1.11 W/m2
Observations météo à CASSIS
WU-History script by Weather Underground - 1 mb